sensor_id;sensor_type;location;lat;lon;timestamp;temperature;humidity
26505;DHT22;19493;48.042;7.584;2022-07-05T00:01:01;18.60;99.90
26505;DHT22;19493;48.042;7.584;2022-07-05T00:03:27;18.50;99.90
26505;DHT22;19493;48.042;7.584;2022-07-05T00:05:54;18.50;99.90
26505;DHT22;19493;48.042;7.584;2022-07-05T00:08:20;18.40;99.90
26505;DHT22;19493;48.042;7.584;2022-07-05T00:10:46;18.40;99.90
26505;DHT22;19493;48.042;7.584;2022-07-05T00:13:11;18.40;99.90
26505;DHT22;19493;48.042;7.584;2022-07-05T00:15:37;18.50;99.90
26505;DHT22;19493;48.042;7.584;2022-07-05T00:18:03;18.50;99.90
26505;DHT22;19493;48.042;7.584;2022-07-05T00:20:29;18.50;99.90
26505;DHT22;19493;48.042;7.584;2022-07-05T00:22:54;18.50;99.90
26505;DHT22;19493;48.042;7.584;2022-07-05T00:25:20;18.60;99.90
26505;DHT22;19493;48.042;7.584;2022-07-05T00:27:45;18.60;99.90
26505;DHT22;19493;48.042;7.584;2022-07-05T00:30:12;18.60;99.90
26505;DHT22;19493;48.042;7.584;2022-07-05T00:32:38;18.60;99.90
26505;DHT22;19493;48.042;7.584;2022-07-05T00:35:08;18.60;99.90
26505;DHT22;19493;48.042;7.584;2022-07-05T00:37:33;18.60;99.90
26505;DHT22;19493;48.042;7.584;2022-07-05T00:39:59;18.70;99.90
26505;DHT22;19493;48.042;7.584;2022-07-05T00:42:25;18.70;99.90
26505;DHT22;19493;48.042;7.584;2022-07-05T00:44:51;18.70;99.90
26505;DHT22;19493;48.042;7.584;2022-07-05T00:47:17;18.70;99.90
26505;DHT22;19493;48.042;7.584;2022-07-05T00:49:43;18.80;99.90
26505;DHT22;19493;48.042;7.584;2022-07-05T00:52:11;18.80;99.90
26505;DHT22;19493;48.042;7.584;2022-07-05T00:54:38;18.80;99.90
26505;DHT22;19493;48.042;7.584;2022-07-05T00:57:05;18.80;99.90
26505;DHT22;19493;48.042;7.584;2022-07-05T00:59:33;18.80;99.90
26505;DHT22;19493;48.042;7.584;2022-07-05T01:01:59;18.80;99.90
26505;DHT22;19493;48.042;7.584;2022-07-05T01:04:25;18.80;99.90
26505;DHT22;19493;48.042;7.584;2022-07-05T01:06:51;18.70;99.90
26505;DHT22;19493;48.042;7.584;2022-07-05T01:09:18;18.70;99.90
26505;DHT22;19493;48.042;7.584;2022-07-05T01:11:48;18.70;99.90
26505;DHT22;19493;48.042;7.584;2022-07-05T01:14:16;18.60;99.90
26505;DHT22;19493;48.042;7.584;2022-07-05T01:16:42;18.50;99.90
26505;DHT22;19493;48.042;7.584;2022-07-05T01:19:10;18.40;99.90
26505;DHT22;19493;48.042;7.584;2022-07-05T01:21:42;18.30;99.90
26505;DHT22;19493;48.042;7.584;2022-07-05T01:24:12;18.20;99.90
26505;DHT22;19493;48.042;7.584;2022-07-05T01:26:40;18.00;99.90
26505;DHT22;19493;48.042;7.584;2022-07-05T01:29:07;17.90;99.90
26505;DHT22;19493;48.042;7.584;2022-07-05T01:31:36;17.80;99.90
26505;DHT22;19493;48.042;7.584;2022-07-05T01:34:02;17.70;99.90
26505;DHT22;19493;48.042;7.584;2022-07-05T01:36:28;17.50;99.90
26505;DHT22;19493;48.042;7.584;2022-07-05T01:38:54;17.50;99.90
26505;DHT22;19493;48.042;7.584;2022-07-05T01:41:19;17.40;99.90
26505;DHT22;19493;48.042;7.584;2022-07-05T01:43:45;17.30;99.90
26505;DHT22;19493;48.042;7.584;2022-07-05T01:46:11;17.30;99.90
26505;DHT22;19493;48.042;7.584;2022-07-05T01:48:39;17.20;99.90
26505;DHT22;19493;48.042;7.584;2022-07-05T01:51:20;17.20;99.90
26505;DHT22;19493;48.042;7.584;2022-07-05T01:53:47;17.10;99.90
26505;DHT22;19493;48.042;7.584;2022-07-05T01:56:15;17.00;99.90
26505;DHT22;19493;48.042;7.584;2022-07-05T01:58:41;16.90;99.90
26505;DHT22;19493;48.042;7.584;2022-07-05T02:01:07;16.80;99.90
26505;DHT22;19493;48.042;7.584;2022-07-05T02:03:33;16.70;99.90
26505;DHT22;19493;48.042;7.584;2022-07-05T02:05:59;16.60;99.90
26505;DHT22;19493;48.042;7.584;2022-07-05T02:08:29;16.50;99.90
26505;DHT22;19493;48.042;7.584;2022-07-05T02:10:55;16.40;99.90
26505;DHT22;19493;48.042;7.584;2022-07-05T02:13:21;16.30;99.90
26505;DHT22;19493;48.042;7.584;2022-07-05T02:15:47;16.30;99.90
26505;DHT22;19493;48.042;7.584;2022-07-05T02:18:12;16.30;99.90
26505;DHT22;19493;48.042;7.584;2022-07-05T02:20:39;16.30;99.90
26505;DHT22;19493;48.042;7.584;2022-07-05T02:23:05;16.30;99.90
26505;DHT22;19493;48.042;7.584;2022-07-05T02:25:30;16.20;99.90
26505;DHT22;19493;48.042;7.584;2022-07-05T02:27:56;16.20;99.90
26505;DHT22;19493;48.042;7.584;2022-07-05T02:30:22;16.10;99.90
26505;DHT22;19493;48.042;7.584;2022-07-05T02:32:47;16.10;99.90
26505;DHT22;19493;48.042;7.584;2022-07-05T02:35:13;16.10;99.90
26505;DHT22;19493;48.042;7.584;2022-07-05T02:37:39;16.00;99.90
26505;DHT22;19493;48.042;7.584;2022-07-05T02:40:10;16.00;99.90
26505;DHT22;19493;48.042;7.584;2022-07-05T02:42:36;16.00;99.90
26505;DHT22;19493;48.042;7.584;2022-07-05T02:45:03;16.10;99.90
26505;DHT22;19493;48.042;7.584;2022-07-05T02:47:33;16.10;99.90
26505;DHT22;19493;48.042;7.584;2022-07-05T02:50:07;16.20;99.90
26505;DHT22;19493;48.042;7.584;2022-07-05T02:52:33;16.20;99.90
26505;DHT22;19493;48.042;7.584;2022-07-05T02:54:59;16.10;99.90
26505;DHT22;19493;48.042;7.584;2022-07-05T02:57:24;16.10;99.90
26505;DHT22;19493;48.042;7.584;2022-07-05T02:59:53;16.00;99.90
26505;DHT22;19493;48.042;7.584;2022-07-05T03:02:20;16.00;99.90
26505;DHT22;19493;48.042;7.584;2022-07-05T03:04:45;16.00;99.90
26505;DHT22;19493;48.042;7.584;2022-07-05T03:07:11;16.00;99.90
26505;DHT22;19493;48.042;7.584;2022-07-05T03:09:36;15.90;99.90
26505;DHT22;19493;48.042;7.584;2022-07-05T03:12:02;15.90;99.90
26505;DHT22;19493;48.042;7.584;2022-07-05T03:14:28;15.80;99.90
26505;DHT22;19493;48.042;7.584;2022-07-05T03:16:53;15.70;99.90
26505;DHT22;19493;48.042;7.584;2022-07-05T03:19:19;15.70;99.90
26505;DHT22;19493;48.042;7.584;2022-07-05T03:21:44;15.60;99.90
26505;DHT22;19493;48.042;7.584;2022-07-05T03:24:10;15.50;99.90
26505;DHT22;19493;48.042;7.584;2022-07-05T03:26:36;15.50;99.90
26505;DHT22;19493;48.042;7.584;2022-07-05T03:29:01;15.50;99.90
26505;DHT22;19493;48.042;7.584;2022-07-05T03:31:27;15.40;99.90
26505;DHT22;19493;48.042;7.584;2022-07-05T03:33:52;15.40;99.90
26505;DHT22;19493;48.042;7.584;2022-07-05T03:36:18;15.40;99.90
26505;DHT22;19493;48.042;7.584;2022-07-05T03:38:44;15.40;99.90
26505;DHT22;19493;48.042;7.584;2022-07-05T03:41:09;15.40;99.90
26505;DHT22;19493;48.042;7.584;2022-07-05T03:43:35;15.40;99.90
26505;DHT22;19493;48.042;7.584;2022-07-05T03:46:00;15.30;99.90
26505;DHT22;19493;48.042;7.584;2022-07-05T03:48:26;15.20;99.90
26505;DHT22;19493;48.042;7.584;2022-07-05T03:50:51;15.20;99.90
26505;DHT22;19493;48.042;7.584;2022-07-05T03:53:17;15.10;99.90
26505;DHT22;19493;48.042;7.584;2022-07-05T03:55:42;15.10;99.90
26505;DHT22;19493;48.042;7.584;2022-07-05T03:58:08;15.00;99.90
26505;DHT22;19493;48.042;7.584;2022-07-05T04:00:34;15.00;99.90
26505;DHT22;19493;48.042;7.584;2022-07-05T04:03:00;14.90;99.90
26505;DHT22;19493;48.042;7.584;2022-07-05T04:05:26;14.90;99.90
26505;DHT22;19493;48.042;7.584;2022-07-05T04:07:54;14.90;99.90
26505;DHT22;19493;48.042;7.584;2022-07-05T04:10:19;14.90;99.90
26505;DHT22;19493;48.042;7.584;2022-07-05T04:12:45;15.00;99.90
26505;DHT22;19493;48.042;7.584;2022-07-05T04:15:11;15.00;99.90
26505;DHT22;19493;48.042;7.584;2022-07-05T04:17:53;15.00;99.90
26505;DHT22;19493;48.042;7.584;2022-07-05T04:20:20;15.00;99.90
26505;DHT22;19493;48.042;7.584;2022-07-05T04:22:50;15.00;99.90
26505;DHT22;19493;48.042;7.584;2022-07-05T04:25:17;15.00;99.90
26505;DHT22;19493;48.042;7.584;2022-07-05T04:27:47;15.00;99.90
26505;DHT22;19493;48.042;7.584;2022-07-05T04:30:14;15.10;99.90
26505;DHT22;19493;48.042;7.584;2022-07-05T04:32:40;15.10;99.90
26505;DHT22;19493;48.042;7.584;2022-07-05T04:35:06;15.20;99.90
26505;DHT22;19493;48.042;7.584;2022-07-05T04:37:32;15.20;99.90
26505;DHT22;19493;48.042;7.584;2022-07-05T04:39:57;15.30;99.90
26505;DHT22;19493;48.042;7.584;2022-07-05T04:42:23;15.40;99.90
26505;DHT22;19493;48.042;7.584;2022-07-05T04:44:48;15.50;99.90
26505;DHT22;19493;48.042;7.584;2022-07-05T04:47:14;15.60;99.90
26505;DHT22;19493;48.042;7.584;2022-07-05T04:49:39;15.70;99.90
26505;DHT22;19493;48.042;7.584;2022-07-05T04:52:05;15.80;99.90
26505;DHT22;19493;48.042;7.584;2022-07-05T04:54:31;15.80;99.90
26505;DHT22;19493;48.042;7.584;2022-07-05T04:56:57;15.90;99.90
26505;DHT22;19493;48.042;7.584;2022-07-05T04:59:22;15.90;99.90
26505;DHT22;19493;48.042;7.584;2022-07-05T05:01:48;16.00;99.90
26505;DHT22;19493;48.042;7.584;2022-07-05T05:04:13;16.00;99.90
26505;DHT22;19493;48.042;7.584;2022-07-05T05:06:39;16.10;99.90
26505;DHT22;19493;48.042;7.584;2022-07-05T05:09:04;16.20;99.90
26505;DHT22;19493;48.042;7.584;2022-07-05T05:11:30;16.30;99.90
26505;DHT22;19493;48.042;7.584;2022-07-05T05:13:55;16.50;99.90
26505;DHT22;19493;48.042;7.584;2022-07-05T05:16:21;16.60;99.90
26505;DHT22;19493;48.042;7.584;2022-07-05T05:18:47;16.70;99.90
26505;DHT22;19493;48.042;7.584;2022-07-05T05:21:12;16.90;99.90
26505;DHT22;19493;48.042;7.584;2022-07-05T05:23:38;17.00;99.90
26505;DHT22;19493;48.042;7.584;2022-07-05T05:26:03;17.20;99.90
26505;DHT22;19493;48.042;7.584;2022-07-05T05:28:29;17.40;99.90
26505;DHT22;19493;48.042;7.584;2022-07-05T05:30:55;17.50;99.90
26505;DHT22;19493;48.042;7.584;2022-07-05T05:33:21;17.70;99.90
26505;DHT22;19493;48.042;7.584;2022-07-05T05:35:46;17.90;99.90
26505;DHT22;19493;48.042;7.584;2022-07-05T05:38:12;18.00;99.90
26505;DHT22;19493;48.042;7.584;2022-07-05T05:40:37;18.10;99.90
26505;DHT22;19493;48.042;7.584;2022-07-05T05:43:03;18.20;99.90
26505;DHT22;19493;48.042;7.584;2022-07-05T05:45:29;18.30;99.90
26505;DHT22;19493;48.042;7.584;2022-07-05T05:47:57;18.40;99.90
26505;DHT22;19493;48.042;7.584;2022-07-05T05:50:25;18.50;99.90
26505;DHT22;19493;48.042;7.584;2022-07-05T05:52:51;18.60;99.90
26505;DHT22;19493;48.042;7.584;2022-07-05T05:55:17;18.70;99.90
26505;DHT22;19493;48.042;7.584;2022-07-05T05:57:43;18.90;99.90
26505;DHT22;19493;48.042;7.584;2022-07-05T06:00:10;19.00;99.90
26505;DHT22;19493;48.042;7.584;2022-07-05T06:02:36;19.10;99.90
26505;DHT22;19493;48.042;7.584;2022-07-05T06:05:02;19.20;99.90
26505;DHT22;19493;48.042;7.584;2022-07-05T06:07:28;19.30;99.90
26505;DHT22;19493;48.042;7.584;2022-07-05T06:09:53;19.50;99.90
26505;DHT22;19493;48.042;7.584;2022-07-05T06:12:19;19.70;99.90
26505;DHT22;19493;48.042;7.584;2022-07-05T06:14:45;20.00;99.90
26505;DHT22;19493;48.042;7.584;2022-07-05T06:17:10;20.50;99.90
26505;DHT22;19493;48.042;7.584;2022-07-05T06:19:36;21.00;99.90
26505;DHT22;19493;48.042;7.584;2022-07-05T06:22:01;21.10;99.90
26505;DHT22;19493;48.042;7.584;2022-07-05T06:24:27;21.10;99.90
26505;DHT22;19493;48.042;7.584;2022-07-05T06:26:53;20.90;99.90
26505;DHT22;19493;48.042;7.584;2022-07-05T06:29:18;20.70;99.90
26505;DHT22;19493;48.042;7.584;2022-07-05T06:31:44;20.50;99.90
26505;DHT22;19493;48.042;7.584;2022-07-05T06:34:09;20.40;99.90
26505;DHT22;19493;48.042;7.584;2022-07-05T06:36:35;20.30;99.90
26505;DHT22;19493;48.042;7.584;2022-07-05T06:39:00;20.20;99.90
26505;DHT22;19493;48.042;7.584;2022-07-05T06:41:26;20.20;99.90
26505;DHT22;19493;48.042;7.584;2022-07-05T06:43:52;20.30;99.90
26505;DHT22;19493;48.042;7.584;2022-07-05T06:46:17;20.30;99.90
26505;DHT22;19493;48.042;7.584;2022-07-05T06:48:43;20.30;99.90
26505;DHT22;19493;48.042;7.584;2022-07-05T06:51:08;20.40;99.90
26505;DHT22;19493;48.042;7.584;2022-07-05T06:53:34;20.50;99.90
26505;DHT22;19493;48.042;7.584;2022-07-05T06:55:59;20.50;99.90
26505;DHT22;19493;48.042;7.584;2022-07-05T06:58:25;20.60;99.90
26505;DHT22;19493;48.042;7.584;2022-07-05T07:00:51;20.70;99.90
26505;DHT22;19493;48.042;7.584;2022-07-05T07:03:17;20.80;99.90
26505;DHT22;19493;48.042;7.584;2022-07-05T07:05:43;20.90;99.90
26505;DHT22;19493;48.042;7.584;2022-07-05T07:08:09;21.00;99.90
26505;DHT22;19493;48.042;7.584;2022-07-05T07:10:53;21.10;99.70
26505;DHT22;19493;48.042;7.584;2022-07-05T07:13:18;21.10;99.50
26505;DHT22;19493;48.042;7.584;2022-07-05T07:15:45;21.20;97.40
26505;DHT22;19493;48.042;7.584;2022-07-05T07:18:13;21.40;97.60
26505;DHT22;19493;48.042;7.584;2022-07-05T07:20:39;21.50;97.00
26505;DHT22;19493;48.042;7.584;2022-07-05T07:23:04;21.60;96.70
26505;DHT22;19493;48.042;7.584;2022-07-05T07:25:30;21.60;97.60
26505;DHT22;19493;48.042;7.584;2022-07-05T07:27:55;21.70;97.30
26505;DHT22;19493;48.042;7.584;2022-07-05T07:30:24;21.80;97.90
26505;DHT22;19493;48.042;7.584;2022-07-05T07:32:50;21.80;96.80
26505;DHT22;19493;48.042;7.584;2022-07-05T07:35:16;21.90;96.50
26505;DHT22;19493;48.042;7.584;2022-07-05T07:37:42;22.00;96.20
26505;DHT22;19493;48.042;7.584;2022-07-05T07:40:08;22.10;95.30
26505;DHT22;19493;48.042;7.584;2022-07-05T07:42:34;22.20;95.20
26505;DHT22;19493;48.042;7.584;2022-07-05T07:45:00;22.30;92.50
26505;DHT22;19493;48.042;7.584;2022-07-05T07:47:29;22.30;93.20
26505;DHT22;19493;48.042;7.584;2022-07-05T07:49:55;22.40;93.20
26505;DHT22;19493;48.042;7.584;2022-07-05T07:52:21;22.60;92.90
26505;DHT22;19493;48.042;7.584;2022-07-05T07:54:46;22.60;91.50
26505;DHT22;19493;48.042;7.584;2022-07-05T07:57:12;22.70;92.10
26505;DHT22;19493;48.042;7.584;2022-07-05T07:59:37;22.80;91.70
26505;DHT22;19493;48.042;7.584;2022-07-05T08:02:03;22.90;91.00
26505;DHT22;19493;48.042;7.584;2022-07-05T08:04:29;23.10;90.40
26505;DHT22;19493;48.042;7.584;2022-07-05T08:06:54;23.20;88.80
26505;DHT22;19493;48.042;7.584;2022-07-05T08:09:20;23.30;89.00
26505;DHT22;19493;48.042;7.584;2022-07-05T08:11:47;23.30;84.60
26505;DHT22;19493;48.042;7.584;2022-07-05T08:14:16;23.40;81.20
26505;DHT22;19493;48.042;7.584;2022-07-05T08:16:43;23.50;79.70
26505;DHT22;19493;48.042;7.584;2022-07-05T08:19:09;23.50;78.70
26505;DHT22;19493;48.042;7.584;2022-07-05T08:21:53;23.60;79.60
26505;DHT22;19493;48.042;7.584;2022-07-05T08:24:19;23.70;77.80
26505;DHT22;19493;48.042;7.584;2022-07-05T08:26:44;23.90;78.90
26505;DHT22;19493;48.042;7.584;2022-07-05T08:29:11;24.10;77.20
26505;DHT22;19493;48.042;7.584;2022-07-05T08:31:43;24.20;76.20
26505;DHT22;19493;48.042;7.584;2022-07-05T08:34:09;24.30;75.50
26505;DHT22;19493;48.042;7.584;2022-07-05T08:36:35;24.40;72.10
26505;DHT22;19493;48.042;7.584;2022-07-05T08:39:01;24.40;73.30
26505;DHT22;19493;48.042;7.584;2022-07-05T08:41:29;24.50;73.90
26505;DHT22;19493;48.042;7.584;2022-07-05T08:43:55;24.50;72.70
26505;DHT22;19493;48.042;7.584;2022-07-05T08:46:24;24.60;71.90
26505;DHT22;19493;48.042;7.584;2022-07-05T08:48:51;24.70;70.60
26505;DHT22;19493;48.042;7.584;2022-07-05T08:51:21;24.80;69.50
26505;DHT22;19493;48.042;7.584;2022-07-05T08:53:48;25.00;68.20
26505;DHT22;19493;48.042;7.584;2022-07-05T08:56:15;25.00;68.10
26505;DHT22;19493;48.042;7.584;2022-07-05T08:58:41;25.00;69.10
26505;DHT22;19493;48.042;7.584;2022-07-05T09:01:07;25.20;67.30
26505;DHT22;19493;48.042;7.584;2022-07-05T09:03:42;25.20;68.70
26505;DHT22;19493;48.042;7.584;2022-07-05T09:06:10;25.30;69.40
26505;DHT22;19493;48.042;7.584;2022-07-05T09:08:37;25.50;71.90
26505;DHT22;19493;48.042;7.584;2022-07-05T09:11:07;26.30;70.80
26505;DHT22;19493;48.042;7.584;2022-07-05T09:13:36;27.30;64.30
26505;DHT22;19493;48.042;7.584;2022-07-05T09:16:02;28.00;61.90
26505;DHT22;19493;48.042;7.584;2022-07-05T09:18:51;28.40;58.60
26505;DHT22;19493;48.042;7.584;2022-07-05T09:21:18;29.40;56.00
26505;DHT22;19493;48.042;7.584;2022-07-05T09:23:45;29.90;53.10
26505;DHT22;19493;48.042;7.584;2022-07-05T09:26:17;30.40;51.50
26505;DHT22;19493;48.042;7.584;2022-07-05T09:28:56;30.70;50.50
26505;DHT22;19493;48.042;7.584;2022-07-05T09:31:32;31.20;51.10
26505;DHT22;19493;48.042;7.584;2022-07-05T09:34:06;31.30;48.30
26505;DHT22;19493;48.042;7.584;2022-07-05T09:37:00;31.70;48.00
26505;DHT22;19493;48.042;7.584;2022-07-05T09:42:11;32.10;45.80
26505;DHT22;19493;48.042;7.584;2022-07-05T09:44:47;31.90;45.10
26505;DHT22;19493;48.042;7.584;2022-07-05T09:47:15;32.20;42.60
26505;DHT22;19493;48.042;7.584;2022-07-05T09:49:47;32.50;44.40
26505;DHT22;19493;48.042;7.584;2022-07-05T09:52:35;32.70;43.40
26505;DHT22;19493;48.042;7.584;2022-07-05T09:57:41;33.80;41.00
26505;DHT22;19493;48.042;7.584;2022-07-05T10:00:08;33.80;42.80
26505;DHT22;19493;48.042;7.584;2022-07-05T10:02:43;33.40;41.90
26505;DHT22;19493;48.042;7.584;2022-07-05T10:05:13;34.00;41.70
26505;DHT22;19493;48.042;7.584;2022-07-05T10:07:40;34.30;40.70
26505;DHT22;19493;48.042;7.584;2022-07-05T10:10:10;34.50;40.50
26505;DHT22;19493;48.042;7.584;2022-07-05T10:12:37;34.10;40.00
26505;DHT22;19493;48.042;7.584;2022-07-05T10:15:04;34.00;39.40
26505;DHT22;19493;48.042;7.584;2022-07-05T10:17:44;33.90;39.60
26505;DHT22;19493;48.042;7.584;2022-07-05T10:22:41;34.50;40.70
26505;DHT22;19493;48.042;7.584;2022-07-05T10:25:08;34.60;39.80
26505;DHT22;19493;48.042;7.584;2022-07-05T10:27:34;34.60;38.40
26505;DHT22;19493;48.042;7.584;2022-07-05T10:30:02;34.80;38.50
26505;DHT22;19493;48.042;7.584;2022-07-05T10:32:29;35.00;38.80
26505;DHT22;19493;48.042;7.584;2022-07-05T10:34:57;35.00;39.40
26505;DHT22;19493;48.042;7.584;2022-07-05T10:37:26;35.60;39.60
26505;DHT22;19493;48.042;7.584;2022-07-05T10:39:55;35.80;35.90
26505;DHT22;19493;48.042;7.584;2022-07-05T10:42:22;35.90;35.70
26505;DHT22;19493;48.042;7.584;2022-07-05T10:44:48;36.00;35.50
26505;DHT22;19493;48.042;7.584;2022-07-05T10:47:14;36.10;35.30
26505;DHT22;19493;48.042;7.584;2022-07-05T10:49:40;36.00;36.40
26505;DHT22;19493;48.042;7.584;2022-07-05T10:52:22;36.60;34.80
26505;DHT22;19493;48.042;7.584;2022-07-05T10:55:17;36.80;32.40
26505;DHT22;19493;48.042;7.584;2022-07-05T10:57:43;36.80;33.00
26505;DHT22;19493;48.042;7.584;2022-07-05T11:00:10;37.10;33.30
26505;DHT22;19493;48.042;7.584;2022-07-05T11:02:37;37.50;33.80
26505;DHT22;19493;48.042;7.584;2022-07-05T11:05:03;37.40;32.20
26505;DHT22;19493;48.042;7.584;2022-07-05T11:08:00;37.90;31.10
26505;DHT22;19493;48.042;7.584;2022-07-05T11:10:26;37.70;32.50
26505;DHT22;19493;48.042;7.584;2022-07-05T11:12:52;38.30;31.10
26505;DHT22;19493;48.042;7.584;2022-07-05T11:15:18;37.80;32.10
26505;DHT22;19493;48.042;7.584;2022-07-05T11:17:43;38.00;33.40
26505;DHT22;19493;48.042;7.584;2022-07-05T11:20:35;37.60;34.50
26505;DHT22;19493;48.042;7.584;2022-07-05T11:23:01;37.90;32.00
26505;DHT22;19493;48.042;7.584;2022-07-05T11:25:32;37.50;32.40
26505;DHT22;19493;48.042;7.584;2022-07-05T11:28:12;37.20;32.70
26505;DHT22;19493;48.042;7.584;2022-07-05T11:30:52;37.30;33.40
26505;DHT22;19493;48.042;7.584;2022-07-05T11:33:36;37.50;32.60
26505;DHT22;19493;48.042;7.584;2022-07-05T11:36:04;37.60;32.50
26505;DHT22;19493;48.042;7.584;2022-07-05T11:38:30;38.10;32.90
26505;DHT22;19493;48.042;7.584;2022-07-05T11:41:10;38.30;32.10
26505;DHT22;19493;48.042;7.584;2022-07-05T11:43:37;38.70;30.20
26505;DHT22;19493;48.042;7.584;2022-07-05T11:46:02;39.10;30.70
26505;DHT22;19493;48.042;7.584;2022-07-05T11:48:29;39.10;29.70
26505;DHT22;19493;48.042;7.584;2022-07-05T11:50:55;39.30;30.30
26505;DHT22;19493;48.042;7.584;2022-07-05T11:53:28;39.30;29.70
26505;DHT22;19493;48.042;7.584;2022-07-05T11:55:58;40.00;29.40
26505;DHT22;19493;48.042;7.584;2022-07-05T11:58:32;40.40;29.30
26505;DHT22;19493;48.042;7.584;2022-07-05T12:00:58;40.70;30.00
26505;DHT22;19493;48.042;7.584;2022-07-05T12:03:24;40.80;28.30
26505;DHT22;19493;48.042;7.584;2022-07-05T12:05:50;40.50;28.60
26505;DHT22;19493;48.042;7.584;2022-07-05T12:08:22;40.20;29.10
26505;DHT22;19493;48.042;7.584;2022-07-05T12:10:49;40.20;28.50
26505;DHT22;19493;48.042;7.584;2022-07-05T12:13:47;38.90;29.60
26505;DHT22;19493;48.042;7.584;2022-07-05T12:16:13;39.00;28.60
26505;DHT22;19493;48.042;7.584;2022-07-05T12:18:50;39.60;29.70
26505;DHT22;19493;48.042;7.584;2022-07-05T12:21:15;39.90;29.50
26505;DHT22;19493;48.042;7.584;2022-07-05T12:23:42;39.30;29.40
26505;DHT22;19493;48.042;7.584;2022-07-05T12:26:12;40.10;29.70
26505;DHT22;19493;48.042;7.584;2022-07-05T12:28:42;40.50;27.90
26505;DHT22;19493;48.042;7.584;2022-07-05T12:31:23;40.90;28.50
26505;DHT22;19493;48.042;7.584;2022-07-05T12:33:50;40.40;27.90
26505;DHT22;19493;48.042;7.584;2022-07-05T12:36:18;39.60;27.80
26505;DHT22;19493;48.042;7.584;2022-07-05T12:38:45;39.30;28.70
26505;DHT22;19493;48.042;7.584;2022-07-05T12:41:11;39.80;28.30
26505;DHT22;19493;48.042;7.584;2022-07-05T12:43:50;40.20;30.00
26505;DHT22;19493;48.042;7.584;2022-07-05T12:46:16;40.40;28.80
26505;DHT22;19493;48.042;7.584;2022-07-05T12:48:41;40.20;29.30
26505;DHT22;19493;48.042;7.584;2022-07-05T12:51:08;40.60;28.00
26505;DHT22;19493;48.042;7.584;2022-07-05T12:53:34;41.00;28.30
26505;DHT22;19493;48.042;7.584;2022-07-05T12:56:23;40.80;28.60
26505;DHT22;19493;48.042;7.584;2022-07-05T12:59:09;41.00;29.60
26505;DHT22;19493;48.042;7.584;2022-07-05T13:01:40;41.30;28.80
26505;DHT22;19493;48.042;7.584;2022-07-05T13:06:40;41.10;28.30
26505;DHT22;19493;48.042;7.584;2022-07-05T13:09:06;41.40;27.60
26505;DHT22;19493;48.042;7.584;2022-07-05T13:11:32;41.50;27.50
26505;DHT22;19493;48.042;7.584;2022-07-05T13:13:57;41.60;29.50
26505;DHT22;19493;48.042;7.584;2022-07-05T13:16:23;41.50;28.30
26505;DHT22;19493;48.042;7.584;2022-07-05T13:18:48;41.70;27.00
26505;DHT22;19493;48.042;7.584;2022-07-05T13:21:14;41.40;26.40
26505;DHT22;19493;48.042;7.584;2022-07-05T13:23:39;41.30;26.60
26505;DHT22;19493;48.042;7.584;2022-07-05T13:26:05;40.90;26.90
26505;DHT22;19493;48.042;7.584;2022-07-05T13:28:32;40.80;28.40
26505;DHT22;19493;48.042;7.584;2022-07-05T13:30:57;41.00;29.00
26505;DHT22;19493;48.042;7.584;2022-07-05T13:33:23;40.80;28.80
26505;DHT22;19493;48.042;7.584;2022-07-05T13:35:48;41.70;28.00
26505;DHT22;19493;48.042;7.584;2022-07-05T13:38:14;41.50;28.60
26505;DHT22;19493;48.042;7.584;2022-07-05T13:40:39;42.00;27.80
26505;DHT22;19493;48.042;7.584;2022-07-05T13:43:05;42.40;27.00
26505;DHT22;19493;48.042;7.584;2022-07-05T13:45:31;42.40;28.60
26505;DHT22;19493;48.042;7.584;2022-07-05T13:47:56;41.90;27.50
26505;DHT22;19493;48.042;7.584;2022-07-05T13:50:22;42.10;27.20
26505;DHT22;19493;48.042;7.584;2022-07-05T13:53:00;42.00;26.70
26505;DHT22;19493;48.042;7.584;2022-07-05T13:55:26;42.00;26.50
26505;DHT22;19493;48.042;7.584;2022-07-05T13:57:52;40.60;26.60
26505;DHT22;19493;48.042;7.584;2022-07-05T14:00:18;40.40;27.50
26505;DHT22;19493;48.042;7.584;2022-07-05T14:02:44;40.50;27.50
26505;DHT22;19493;48.042;7.584;2022-07-05T14:05:10;40.80;27.50
26505;DHT22;19493;48.042;7.584;2022-07-05T14:07:36;41.30;27.00
26505;DHT22;19493;48.042;7.584;2022-07-05T14:12:29;42.00;26.90
26505;DHT22;19493;48.042;7.584;2022-07-05T14:14:54;42.60;26.70
26505;DHT22;19493;48.042;7.584;2022-07-05T14:17:20;41.70;27.20
26505;DHT22;19493;48.042;7.584;2022-07-05T14:19:45;41.70;27.70
26505;DHT22;19493;48.042;7.584;2022-07-05T14:22:11;41.80;27.00
26505;DHT22;19493;48.042;7.584;2022-07-05T14:24:37;42.10;27.50
26505;DHT22;19493;48.042;7.584;2022-07-05T14:27:02;42.50;27.30
26505;DHT22;19493;48.042;7.584;2022-07-05T14:29:32;41.90;26.50
26505;DHT22;19493;48.042;7.584;2022-07-05T14:31:58;41.40;26.80
26505;DHT22;19493;48.042;7.584;2022-07-05T14:34:23;41.10;27.30
26505;DHT22;19493;48.042;7.584;2022-07-05T14:36:49;41.70;27.70
26505;DHT22;19493;48.042;7.584;2022-07-05T14:39:14;42.30;27.20
26505;DHT22;19493;48.042;7.584;2022-07-05T14:41:40;42.80;26.60
26505;DHT22;19493;48.042;7.584;2022-07-05T14:44:05;42.60;25.70
26505;DHT22;19493;48.042;7.584;2022-07-05T14:46:31;42.90;25.40
26505;DHT22;19493;48.042;7.584;2022-07-05T14:48:57;42.70;25.70
26505;DHT22;19493;48.042;7.584;2022-07-05T14:51:22;42.10;26.20
26505;DHT22;19493;48.042;7.584;2022-07-05T14:53:48;42.00;26.40
26505;DHT22;19493;48.042;7.584;2022-07-05T14:56:17;41.70;26.70
26505;DHT22;19493;48.042;7.584;2022-07-05T14:58:43;41.70;26.50
26505;DHT22;19493;48.042;7.584;2022-07-05T15:01:09;41.60;26.50
26505;DHT22;19493;48.042;7.584;2022-07-05T15:03:35;41.60;27.20
26505;DHT22;19493;48.042;7.584;2022-07-05T15:06:01;41.40;26.70
26505;DHT22;19493;48.042;7.584;2022-07-05T15:08:29;41.70;26.10
26505;DHT22;19493;48.042;7.584;2022-07-05T15:10:54;41.60;25.70
26505;DHT22;19493;48.042;7.584;2022-07-05T15:13:20;41.90;25.40
26505;DHT22;19493;48.042;7.584;2022-07-05T15:15:45;41.40;25.40
26505;DHT22;19493;48.042;7.584;2022-07-05T15:18:11;41.80;26.00
26505;DHT22;19493;48.042;7.584;2022-07-05T15:20:36;41.60;25.10
26505;DHT22;19493;48.042;7.584;2022-07-05T15:23:02;41.80;26.20
26505;DHT22;19493;48.042;7.584;2022-07-05T15:25:27;41.60;26.20
26505;DHT22;19493;48.042;7.584;2022-07-05T15:27:53;41.70;26.20
26505;DHT22;19493;48.042;7.584;2022-07-05T15:30:19;41.80;26.60
26505;DHT22;19493;48.042;7.584;2022-07-05T15:32:48;41.40;25.70
26505;DHT22;19493;48.042;7.584;2022-07-05T15:35:14;41.30;25.70
26505;DHT22;19493;48.042;7.584;2022-07-05T15:37:41;40.80;25.50
26505;DHT22;19493;48.042;7.584;2022-07-05T15:40:07;41.30;26.40
26505;DHT22;19493;48.042;7.584;2022-07-05T15:42:33;41.30;26.50
26505;DHT22;19493;48.042;7.584;2022-07-05T15:44:58;41.00;25.80